Time;durP1;ratioP1;P1;durP2;ratioP2;P2;SDS_P1;SDS_P2;PMS_P1;PMS_P2;Temp;Humidity;BMP_temperature;BMP_pressure;BME280_temperature;BME280_humidity;BME280_pressure;Samples;Min_cycle;Max_cycle;Signal;HPM_P1;HPM_P2
2023/09/01 00:00:59;;;;;;;1.85;1.55;;;21.00;89.40;;;;;;5042846;28;20656;-69
2023/09/01 00:03:45;;;;;;;3.05;1.98;;;21.00;89.40;;;;;;5031065;28;20206;-68
2023/09/01 00:06:14;;;;;;;2.75;1.77;;;21.00;89.40;;;;;;5025089;28;20219;-68
2023/09/01 00:08:40;;;;;;;3.45;1.83;;;21.00;89.40;;;;;;5041794;28;20191;-68
2023/09/01 00:11:06;;;;;;;2.33;1.60;;;21.00;89.40;;;;;;5048743;28;20214;-69
2023/09/01 00:13:31;;;;;;;3.72;1.92;;;21.00;89.50;;;;;;5042982;28;20182;-68
2023/09/01 00:15:57;;;;;;;3.00;1.88;;;21.00;89.40;;;;;;5051045;28;20206;-68
2023/09/01 00:18:23;;;;;;;2.22;1.85;;;21.00;89.40;;;;;;5041930;28;20183;-68
2023/09/01 00:20:48;;;;;;;3.58;1.98;;;21.00;89.40;;;;;;5036170;28;20211;-70
2023/09/01 00:23:14;;;;;;;3.20;1.80;;;21.00;89.40;;;;;;5022464;28;20192;-69
2023/09/01 00:25:40;;;;;;;3.03;1.88;;;21.00;89.40;;;;;;5038609;28;20183;-68
2023/09/01 00:28:06;;;;;;;2.42;1.80;;;21.00;89.40;;;;;;5047358;28;20264;-69
2023/09/01 00:30:32;;;;;;;2.28;1.52;;;21.00;89.40;;;;;;5015221;28;20233;-68
2023/09/01 00:32:58;;;;;;;2.50;1.80;;;21.00;89.40;;;;;;5049643;28;20200;-68
2023/09/01 00:35:24;;;;;;;2.70;1.73;;;21.00;89.40;;;;;;5028305;28;20197;-69
2023/09/01 00:37:51;;;;;;;1.65;1.55;;;21.00;89.40;;;;;;5036674;28;20214;-69
2023/09/01 00:40:17;;;;;;;2.15;1.90;;;21.00;89.40;;;;;;5027942;28;20191;-70
2023/09/01 00:42:43;;;;;;;2.85;1.75;;;21.00;89.40;;;;;;5038912;28;20171;-69
2023/09/01 00:45:09;;;;;;;2.58;1.67;;;21.00;89.40;;;;;;5028121;28;20178;-69
2023/09/01 00:47:34;;;;;;;1.73;1.63;;;21.00;89.40;;;;;;5035770;28;20682;-69
2023/09/01 00:50:07;;;;;;;1.83;1.42;;;21.00;89.40;;;;;;5027376;28;20178;-68
2023/09/01 00:52:34;;;;;;;1.98;1.75;;;21.00;89.40;;;;;;5037047;28;20183;-68
2023/09/01 00:55:00;;;;;;;2.30;1.90;;;21.00;89.40;;;;;;5027966;28;20181;-68
2023/09/01 00:57:26;;;;;;;1.80;1.70;;;21.00;89.40;;;;;;5036229;28;20203;-68
2023/09/01 00:59:52;;;;;;;3.70;1.85;;;21.00;89.50;;;;;;5053119;28;20190;-68
2023/09/01 01:02:17;;;;;;;3.58;1.85;;;21.00;89.40;;;;;;5027895;28;20183;-68
2023/09/01 01:04:43;;;;;;;1.98;1.77;;;21.00;89.40;;;;;;5052584;28;20286;-68
2023/09/01 01:07:25;;;;;;;2.25;1.88;;;21.00;89.40;;;;;;5044711;28;20202;-69
2023/09/01 01:10:18;;;;;;;2.08;1.88;;;21.00;89.40;;;;;;5027839;28;20662;-69
2023/09/01 01:13:09;;;;;;;1.80;1.70;;;21.00;89.40;;;;;;5035012;28;20184;-70
2023/09/01 01:15:37;;;;;;;2.30;1.60;;;21.00;89.40;;;;;;5037346;28;20186;-68
2023/09/01 01:18:10;;;;;;;2.08;1.90;;;21.00;89.40;;;;;;5052478;28;20221;-68
2023/09/01 01:20:40;;;;;;;2.38;1.80;;;21.00;89.40;;;;;;5037812;28;20203;-68
2023/09/01 01:23:07;;;;;;;2.13;1.80;;;21.00;89.50;;;;;;5052179;28;20209;-69
2023/09/01 01:25:33;;;;;;;2.22;1.70;;;21.00;89.40;;;;;;5044339;28;20185;-69
2023/09/01 01:28:07;;;;;;;1.63;1.50;;;21.00;89.40;;;;;;5044088;28;20213;-70
2023/09/01 01:30:33;;;;;;;3.65;1.70;;;21.00;89.40;;;;;;5032589;28;20198;-69
2023/09/01 01:32:59;;;;;;;1.85;1.75;;;21.00;89.40;;;;;;5047779;28;20645;-69
2023/09/01 01:35:52;;;;;;;2.83;1.45;;;21.00;89.50;;;;;;5041301;28;20939;-68
2023/09/01 01:38:26;;;;;;;2.10;1.60;;;21.00;89.40;;;;;;5032391;28;20222;-70
2023/09/01 01:41:13;;;;;;;2.00;1.80;;;21.00;89.40;;;;;;5029971;28;20185;-69
2023/09/01 01:43:42;;;;;;;1.60;1.50;;;21.00;89.40;;;;;;5037458;28;20179;-68
2023/09/01 01:46:08;;;;;;;1.98;1.83;;;21.00;89.40;;;;;;5043461;28;20233;-70
2023/09/01 01:48:37;;;;;;;1.90;1.70;;;21.00;89.40;;;;;;5040229;28;20183;-69
2023/09/01 01:51:05;;;;;;;2.00;1.80;;;21.00;89.40;;;;;;5039444;28;20194;-69
2023/09/01 01:53:35;;;;;;;2.05;1.85;;;21.00;89.40;;;;;;5034633;28;20186;-69
2023/09/01 01:56:05;;;;;;;2.15;1.58;;;21.00;89.40;;;;;;5025033;28;20287;-70
2023/09/01 01:58:31;;;;;;;1.63;1.45;;;21.00;89.40;;;;;;5047978;28;20181;-68
2023/09/01 02:00:58;;;;;;;2.33;2.00;;;20.90;89.20;;;;;;5020318;28;20184;-68
2023/09/01 02:03:24;;;;;;;1.73;1.50;;;20.90;89.30;;;;;;5065355;28;20189;-68
2023/09/01 02:05:50;;;;;;;2.75;2.03;;;20.90;89.30;;;;;;5043173;28;20187;-68
2023/09/01 02:08:15;;;;;;;1.83;1.67;;;21.00;89.40;;;;;;5044580;28;20187;-68
2023/09/01 02:10:41;;;;;;;1.50;1.40;;;20.90;89.30;;;;;;5033826;28;20699;-69
2023/09/01 02:13:07;;;;;;;1.75;1.50;;;20.90;89.20;;;;;;5043798;28;20176;-68
2023/09/01 02:15:33;;;;;;;1.70;1.50;;;21.00;89.40;;;;;;5025959;28;20661;-68
2023/09/01 02:17:58;;;;;;;1.95;1.42;;;20.90;89.30;;;;;;5026558;28;20206;-70
2023/09/01 02:20:26;;;;;;;1.60;1.50;;;21.00;89.30;;;;;;5042675;28;20260;-68
2023/09/01 02:22:54;;;;;;;2.50;1.50;;;20.90;89.30;;;;;;5052564;28;20194;-68
2023/09/01 02:25:21;;;;;;;1.77;1.67;;;20.90;89.30;;;;;;5051171;28;20198;-68
2023/09/01 02:27:46;;;;;;;2.17;1.70;;;20.90;89.30;;;;;;5045534;28;20203;-68
2023/09/01 02:30:13;;;;;;;1.95;1.70;;;20.90;89.20;;;;;;5026263;28;20189;-69
2023/09/01 02:32:40;;;;;;;2.63;1.90;;;20.90;89.30;;;;;;5018469;28;20183;-68
2023/09/01 02:35:08;;;;;;;1.70;1.60;;;20.90;89.20;;;;;;5043750;28;20261;-69
2023/09/01 02:37:34;;;;;;;2.17;1.80;;;20.90;89.20;;;;;;5025008;28;20253;-69
2023/09/01 02:40:00;;;;;;;2.15;1.58;;;20.90;89.30;;;;;;5039779;28;20266;-69
2023/09/01 02:42:26;;;;;;;1.83;1.73;;;20.90;89.20;;;;;;5014853;28;20275;-69
2023/09/01 02:44:53;;;;;;;1.60;1.50;;;20.90;89.40;;;;;;5028290;28;20187;-71
2023/09/01 02:47:19;;;;;;;1.70;1.60;;;20.90;89.20;;;;;;5031495;28;20215;-68
2023/09/01 02:49:45;;;;;;;1.50;1.40;;;20.90;89.30;;;;;;5026207;28;20228;-69
2023/09/01 02:52:11;;;;;;;2.20;1.70;;;20.90;89.30;;;;;;5042735;28;20268;-69
2023/09/01 02:54:36;;;;;;;1.75;1.50;;;20.90;89.30;;;;;;5042180;28;20182;-70
2023/09/01 02:57:04;;;;;;;1.90;1.80;;;20.90;89.30;;;;;;5045239;28;20205;-68
2023/09/01 02:59:29;;;;;;;1.88;1.63;;;20.90;89.40;;;;;;5040886;28;20179;-69
2023/09/01 03:01:55;;;;;;;1.88;1.70;;;20.90;89.30;;;;;;5028516;28;20186;-69
2023/09/01 03:04:21;;;;;;;1.70;1.60;;;20.90;89.30;;;;;;5048239;28;20187;-69
2023/09/01 03:06:46;;;;;;;1.60;1.50;;;20.90;89.30;;;;;;5022343;28;20591;-69
2023/09/01 03:09:12;;;;;;;2.45;1.95;;;20.90;89.30;;;;;;5039153;28;20568;-70
2023/09/01 03:11:38;;;;;;;2.10;1.90;;;20.90;89.20;;;;;;5050092;28;20202;-69
2023/09/01 03:14:04;;;;;;;1.70;1.60;;;20.90;89.30;;;;;;5034088;28;20189;-69
2023/09/01 03:16:30;;;;;;;1.75;1.55;;;20.90;89.30;;;;;;5025481;28;20261;-68
2023/09/01 03:18:59;;;;;;;1.63;1.52;;;20.90;89.20;;;;;;5034015;28;20205;-70
2023/09/01 03:21:32;;;;;;;1.50;1.40;;;20.90;89.30;;;;;;5025798;28;20182;-69
2023/09/01 03:23:58;;;;;;;1.77;1.55;;;20.90;89.30;;;;;;5042066;28;20269;-69
2023/09/01 03:26:24;;;;;;;2.47;1.45;;;20.90;89.30;;;;;;5025650;28;20211;-69
2023/09/01 03:28:50;;;;;;;1.50;1.40;;;20.90;89.30;;;;;;5050669;28;20183;-68
2023/09/01 03:31:16;;;;;;;1.40;1.30;;;20.90;89.30;;;;;;5042142;28;20225;-68
2023/09/01 03:33:43;;;;;;;1.55;1.42;;;20.90;89.30;;;;;;5046874;28;20204;-69
2023/09/01 03:36:10;;;;;;;1.77;1.60;;;20.90;89.40;;;;;;5022342;28;20721;-69
2023/09/01 03:38:37;;;;;;;1.55;1.40;;;20.90;89.40;;;;;;5040919;28;20190;-67
2023/09/01 03:41:04;;;;;;;1.65;1.55;;;20.90;90.00;;;;;;5042310;28;20186;-68
2023/09/01 03:43:33;;;;;;;1.70;1.60;;;20.90;89.30;;;;;;5049902;28;20186;-69
2023/09/01 03:46:00;;;;;;;1.65;1.55;;;20.90;89.30;;;;;;5038454;28;20203;-68
2023/09/01 03:48:26;;;;;;;1.35;1.25;;;20.90;89.30;;;;;;5046705;28;20240;-69
2023/09/01 03:51:18;;;;;;;1.67;1.58;;;20.90;89.30;;;;;;5021900;28;20213;-69
2023/09/01 03:53:44;;;;;;;1.60;1.50;;;20.90;89.30;;;;;;5036697;28;20196;-69
2023/09/01 03:56:15;;;;;;;1.63;1.52;;;20.90;89.30;;;;;;5028574;28;20205;-68
2023/09/01 03:58:41;;;;;;;1.75;1.65;;;20.90;89.30;;;;;;5047221;28;20188;-69
2023/09/01 04:01:11;;;;;;;2.00;1.70;;;20.90;89.30;;;;;;5045906;28;20202;-69
2023/09/01 04:03:38;;;;;;;1.60;1.50;;;20.90;89.30;;;;;;5039549;28;20246;-69
2023/09/01 04:06:05;;;;;;;1.50;1.40;;;20.90;89.30;;;;;;5047327;28;20210;-68
2023/09/01 04:08:34;;;;;;;1.60;1.50;;;20.90;89.40;;;;;;5027611;28;20193;-68
2023/09/01 04:11:00;;;;;;;1.48;1.38;;;20.90;89.30;;;;;;5042358;28;20298;-69
2023/09/01 04:13:26;;;;;;;1.40;1.30;;;20.90;89.30;;;;;;5042566;28;20210;-69
2023/09/01 04:15:52;;;;;;;1.60;1.50;;;20.90;89.30;;;;;;5028639;28;20677;-69
2023/09/01 04:18:18;;;;;;;1.40;1.30;;;20.90;89.30;;;;;;5045328;28;20681;-68
2023/09/01 04:20:52;;;;;;;1.55;1.40;;;20.90;89.40;;;;;;5033797;28;20576;-69
2023/09/01 04:23:18;;;;;;;1.45;1.35;;;20.90;89.40;;;;;;5032911;28;20216;-69
2023/09/01 04:25:48;;;;;;;1.55;1.45;;;20.90;89.40;;;;;;5050531;28;20245;-68
2023/09/01 04:28:18;;;;;;;1.60;1.50;;;20.90;89.30;;;;;;5033348;28;20216;-69
2023/09/01 04:30:45;;;;;;;1.60;1.50;;;20.90;89.40;;;;;;5028491;28;20246;-68
2023/09/01 04:33:12;;;;;;;2.28;1.65;;;20.90;89.50;;;;;;5022605;28;20274;-69
2023/09/01 04:35:39;;;;;;;1.50;1.40;;;20.90;89.50;;;;;;5022014;28;20184;-69
2023/09/01 04:38:05;;;;;;;1.40;1.30;;;20.90;89.50;;;;;;5016086;28;20183;-68
2023/09/01 04:40:31;;;;;;;1.80;1.48;;;20.90;89.40;;;;;;5057087;28;20207;-69
2023/09/01 04:42:57;;;;;;;1.60;1.50;;;20.90;89.40;;;;;;5045071;28;20333;-68
2023/09/01 04:45:23;;;;;;;1.52;1.42;;;20.90;89.60;;;;;;5044770;28;20190;-69
2023/09/01 04:47:51;;;;;;;1.67;1.58;;;20.90;89.60;;;;;;5036733;28;20202;-68
2023/09/01 04:50:18;;;;;;;1.35;1.25;;;20.90;89.50;;;;;;5052930;28;20205;-68
2023/09/01 04:52:44;;;;;;;2.67;1.42;;;20.90;89.60;;;;;;5042175;28;20316;-68
2023/09/01 04:55:10;;;;;;;1.40;1.10;;;20.90;89.50;;;;;;5041427;28;20270;-69
2023/09/01 04:57:37;;;;;;;1.70;1.58;;;20.90;89.60;;;;;;5026142;28;20238;-69
2023/09/01 05:00:15;;;;;;;1.95;1.50;;;20.80;89.40;;;;;;5044836;28;20210;-69
2023/09/01 05:02:44;;;;;;;1.50;1.40;;;20.90;89.60;;;;;;5042643;28;20167;-68
2023/09/01 05:05:11;;;;;;;1.35;1.25;;;20.80;89.50;;;;;;5046997;28;20189;-68
2023/09/01 05:07:38;;;;;;;1.50;1.27;;;20.90;89.60;;;;;;5026306;28;20256;-69
2023/09/01 05:10:04;;;;;;;1.40;1.30;;;20.90;89.60;;;;;;5029851;28;20174;-68
2023/09/01 05:12:31;;;;;;;1.33;1.20;;;20.90;89.60;;;;;;5035894;28;20632;-69
2023/09/01 05:14:58;;;;;;;1.42;1.30;;;20.80;89.50;;;;;;5027891;28;20183;-69
2023/09/01 05:17:24;;;;;;;1.00;1.00;;;20.80;89.60;;;;;;5043724;28;20202;-69
2023/09/01 05:19:50;;;;;;;1.60;1.50;;;20.80;89.60;;;;;;5043448;28;20182;-69
2023/09/01 05:22:16;;;;;;;1.45;1.15;;;20.90;89.70;;;;;;5045529;28;20194;-69
2023/09/01 05:24:42;;;;;;;1.30;1.20;;;20.90;89.80;;;;;;5041004;28;20199;-68
2023/09/01 05:27:07;;;;;;;2.05;1.38;;;20.80;89.70;;;;;;5044248;28;20207;-69
2023/09/01 05:29:33;;;;;;;1.42;1.33;;;20.80;89.70;;;;;;5043812;28;20190;-69
2023/09/01 05:31:59;;;;;;;1.90;1.58;;;20.80;89.70;;;;;;5040685;28;20264;-69
2023/09/01 05:34:26;;;;;;;1.40;1.30;;;20.80;89.70;;;;;;5040472;28;20270;-68
2023/09/01 05:36:56;;;;;;;1.45;1.35;;;20.80;89.70;;;;;;5043837;28;20220;-69
2023/09/01 05:39:22;;;;;;;1.50;1.40;;;20.90;89.80;;;;;;5027659;28;20199;-69
2023/09/01 05:41:48;;;;;;;1.35;1.25;;;20.80;89.70;;;;;;5025267;28;20194;-68
2023/09/01 05:44:14;;;;;;;1.52;1.42;;;20.80;89.70;;;;;;5036472;28;20192;-69
2023/09/01 05:46:40;;;;;;;1.00;1.00;;;20.80;89.70;;;;;;5041448;28;20207;-69
2023/09/01 05:49:06;;;;;;;1.85;1.50;;;20.80;89.70;;;;;;5047009;28;20190;-68
2023/09/01 05:51:32;;;;;;;1.30;1.20;;;20.90;89.80;;;;;;5040379;28;20207;-68
2023/09/01 05:53:57;;;;;;;1.10;1.00;;;20.80;89.80;;;;;;5043580;28;20182;-68
2023/09/01 05:56:23;;;;;;;1.38;1.27;;;20.90;89.90;;;;;;5026981;28;20206;-68
2023/09/01 05:58:49;;;;;;;1.30;1.20;;;20.90;90.00;;;;;;5052997;28;20195;-69
2023/09/01 06:01:15;;;;;;;1.38;1.23;;;20.80;89.80;;;;;;5051507;28;20197;-69
2023/09/01 06:03:40;;;;;;;1.00;0.90;;;20.80;89.90;;;;;;5051581;28;20202;-68
2023/09/01 06:06:07;;;;;;;1.20;1.10;;;20.80;89.90;;;;;;5021402;28;20287;-68
2023/09/01 06:08:33;;;;;;;1.10;1.00;;;20.80;89.90;;;;;;5038294;28;20216;-69
2023/09/01 06:11:09;;;;;;;1.20;1.10;;;20.80;90.00;;;;;;5043372;28;20207;-70
2023/09/01 06:13:35;;;;;;;1.65;1.20;;;20.80;90.00;;;;;;5038214;28;20187;-70
2023/09/01 06:16:04;;;;;;;1.60;1.50;;;20.80;90.00;;;;;;5026711;28;20293;-68
2023/09/01 06:18:31;;;;;;;1.30;1.20;;;20.90;90.00;;;;;;5028205;28;20200;-71
2023/09/01 06:20:56;;;;;;;1.30;1.20;;;20.80;90.00;;;;;;5050452;28;20740;-68
2023/09/01 06:23:23;;;;;;;1.17;1.08;;;20.80;90.00;;;;;;5034917;28;20195;-69
2023/09/01 06:25:48;;;;;;;1.30;1.20;;;20.90;90.00;;;;;;5032116;28;20223;-68
2023/09/01 06:28:14;;;;;;;1.20;1.10;;;20.80;90.00;;;;;;5050643;28;20187;-69
2023/09/01 06:30:41;;;;;;;1.65;1.55;;;20.80;90.00;;;;;;5035006;28;20265;-69
2023/09/01 06:33:10;;;;;;;1.38;1.27;;;20.80;90.00;;;;;;5041801;28;20210;-68
2023/09/01 06:35:36;;;;;;;1.10;1.00;;;20.80;90.00;;;;;;5042347;28;20182;-71
2023/09/01 06:38:05;;;;;;;1.00;1.00;;;20.80;90.10;;;;;;5052209;28;20197;-68
2023/09/01 06:40:32;;;;;;;1.25;1.10;;;20.90;90.10;;;;;;5014440;28;20195;-68
2023/09/01 06:42:57;;;;;;;1.40;1.30;;;20.80;90.10;;;;;;5032005;28;20182;-68
2023/09/01 06:45:23;;;;;;;1.40;1.23;;;20.80;90.10;;;;;;5022471;28;20625;-69
2023/09/01 06:47:55;;;;;;;1.00;0.98;;;20.80;90.10;;;;;;5039401;28;20207;-69
2023/09/01 06:50:21;;;;;;;1.40;1.30;;;20.80;90.10;;;;;;5022640;28;20241;-70
2023/09/01 06:52:47;;;;;;;1.48;1.30;;;20.80;90.10;;;;;;5030350;28;20215;-68
2023/09/01 06:55:13;;;;;;;1.48;1.38;;;20.80;90.20;;;;;;5045987;28;20210;-68
2023/09/01 06:57:39;;;;;;;1.38;1.20;;;20.80;90.20;;;;;;5030911;28;20205;-69
2023/09/01 07:00:06;;;;;;;1.30;1.20;;;20.80;90.20;;;;;;5037579;28;20171;-67
2023/09/01 07:02:32;;;;;;;2.00;1.25;;;20.90;90.30;;;;;;5036987;28;20186;-69
2023/09/01 07:04:58;;;;;;;1.10;1.00;;;20.90;90.30;;;;;;5038781;28;20198;-68
2023/09/01 07:07:24;;;;;;;1.25;1.10;;;20.80;90.30;;;;;;5028616;28;20271;-68
2023/09/01 07:09:50;;;;;;;2.20;1.20;;;20.80;90.30;;;;;;5050244;28;20190;-68
2023/09/01 07:12:16;;;;;;;1.48;1.13;;;20.80;90.30;;;;;;5043970;28;20218;-69
2023/09/01 07:14:42;;;;;;;1.45;1.35;;;20.80;90.30;;;;;;5050216;28;20189;-69
2023/09/01 07:17:12;;;;;;;1.05;1.05;;;20.80;90.30;;;;;;5043165;28;20212;-69
2023/09/01 07:19:38;;;;;;;1.30;1.20;;;20.80;90.30;;;;;;5005960;28;20191;-71
2023/09/01 07:22:05;;;;;;;1.30;1.20;;;20.80;90.30;;;;;;5042247;28;20186;-69
2023/09/01 07:24:34;;;;;;;1.17;1.00;;;20.90;90.50;;;;;;5042083;28;20232;-68
2023/09/01 07:27:00;;;;;;;1.58;1.48;;;20.80;90.30;;;;;;5043318;28;20230;-70
2023/09/01 07:29:25;;;;;;;1.13;1.02;;;20.90;90.70;;;;;;5044303;28;20209;-68
2023/09/01 07:31:53;;;;;;;1.20;1.10;;;20.90;90.40;;;;;;5033809;28;20214;-68
2023/09/01 07:34:18;;;;;;;1.20;1.10;;;20.90;90.30;;;;;;5035066;28;20187;-68
2023/09/01 07:36:44;;;;;;;1.20;1.10;;;20.90;90.40;;;;;;5040359;28;20203;-70
2023/09/01 07:39:10;;;;;;;0.90;0.90;;;20.90;90.40;;;;;;5042987;28;20179;-68
2023/09/01 07:41:36;;;;;;;1.45;1.30;;;20.90;90.40;;;;;;5039863;28;20179;-69
2023/09/01 07:44:02;;;;;;;1.30;1.10;;;20.90;90.40;;;;;;5045788;28;20716;-68
2023/09/01 07:46:33;;;;;;;1.30;1.20;;;20.90;90.50;;;;;;5051023;28;20747;-68
2023/09/01 07:49:01;;;;;;;1.10;1.00;;;21.00;90.60;;;;;;5027275;28;20190;-69
2023/09/01 07:51:27;;;;;;;1.10;1.10;;;20.90;90.50;;;;;;5043922;28;20242;-68
2023/09/01 07:53:54;;;;;;;1.40;1.30;;;21.00;90.60;;;;;;5050637;28;20183;-68
2023/09/01 07:56:21;;;;;;;1.33;1.20;;;20.90;90.60;;;;;;5031036;28;20210;-67
2023/09/01 07:58:47;;;;;;;0.90;0.90;;;20.90;90.70;;;;;;5047218;28;20210;-68
2023/09/01 08:01:13;;;;;;;1.00;0.90;;;21.00;90.70;;;;;;5046088;28;20210;-69
2023/09/01 08:03:38;;;;;;;1.08;1.08;;;21.00;90.70;;;;;;5054074;28;20540;-68
2023/09/01 08:06:04;;;;;;;1.17;1.10;;;21.00;90.80;;;;;;5028851;28;20214;-67
2023/09/01 08:08:30;;;;;;;1.05;1.05;;;21.00;90.80;;;;;;5054267;28;20190;-68
2023/09/01 08:10:56;;;;;;;1.48;1.10;;;21.00;90.80;;;;;;5027248;28;20210;-68
2023/09/01 08:13:22;;;;;;;0.90;0.90;;;21.00;90.90;;;;;;5047398;28;20677;-69
2023/09/01 08:15:49;;;;;;;3.13;1.30;;;21.00;91.00;;;;;;5028591;28;20179;-68
2023/09/01 08:18:15;;;;;;;1.05;0.98;;;21.00;90.90;;;;;;5049827;28;20229;-68
2023/09/01 08:20:42;;;;;;;1.08;0.98;;;21.00;91.00;;;;;;5042819;28;20289;-67
2023/09/01 08:23:09;;;;;;;1.17;1.10;;;21.00;91.40;;;;;;5050201;28;20286;-68
2023/09/01 08:25:36;;;;;;;1.55;1.20;;;21.00;91.40;;;;;;5042071;28;20175;-69
2023/09/01 08:28:04;;;;;;;1.83;1.23;;;21.10;91.40;;;;;;5050025;28;20263;-69
2023/09/01 08:30:30;;;;;;;2.80;1.02;;;21.10;91.40;;;;;;5025427;28;20278;-69
2023/09/01 08:32:55;;;;;;;2.42;1.38;;;21.10;91.40;;;;;;5044344;28;20318;-68
2023/09/01 08:35:21;;;;;;;1.90;1.00;;;21.10;91.90;;;;;;5028461;28;20190;-70
2023/09/01 08:37:47;;;;;;;1.35;1.10;;;21.10;91.80;;;;;;5045073;28;20210;-69
2023/09/01 08:40:13;;;;;;;2.42;1.30;;;21.10;91.50;;;;;;5036943;28;20174;-68
2023/09/01 08:42:47;;;;;;;3.50;1.00;;;21.10;91.60;;;;;;5032780;28;20708;-69
2023/09/01 08:45:15;;;;;;;2.92;1.20;;;21.10;91.60;;;;;;5029745;28;20196;-69
2023/09/01 08:47:45;;;;;;;3.35;1.20;;;21.10;91.70;;;;;;5036460;28;20289;-69
2023/09/01 08:50:13;;;;;;;4.20;1.25;;;21.10;91.80;;;;;;5044925;28;20190;-70
2023/09/01 08:52:44;;;;;;;1.20;1.10;;;21.10;91.90;;;;;;5045221;28;20210;-69
2023/09/01 08:55:12;;;;;;;2.35;1.30;;;21.10;92.10;;;;;;5044591;28;20621;-68
2023/09/01 08:57:39;;;;;;;1.73;1.13;;;21.10;92.20;;;;;;5045868;28;20202;-68
2023/09/01 09:00:10;;;;;;;1.73;1.40;;;21.20;92.30;;;;;;5026301;28;20179;-68
2023/09/01 09:02:41;;;;;;;1.25;1.10;;;21.10;92.40;;;;;;5021538;28;20234;-69
2023/09/01 09:05:11;;;;;;;1.77;1.40;;;21.20;92.20;;;;;;5042641;28;20179;-69
2023/09/01 09:07:37;;;;;;;3.15;1.25;;;21.20;92.20;;;;;;5045635;28;20285;-69
2023/09/01 09:10:06;;;;;;;1.50;1.15;;;21.20;92.00;;;;;;5042588;28;20174;-68
2023/09/01 09:12:41;;;;;;;4.95;1.38;;;21.20;92.10;;;;;;5022156;28;20221;-68
2023/09/01 09:15:09;;;;;;;3.50;1.27;;;21.20;91.90;;;;;;5044441;28;20183;-67
2023/09/01 09:17:44;;;;;;;6.22;1.65;;;21.20;92.50;;;;;;5044149;28;20210;-70
2023/09/01 09:20:12;;;;;;;6.90;1.30;;;21.40;92.10;;;;;;5041570;28;20312;-69
2023/09/01 09:22:56;;;;;;;5.35;1.30;;;21.30;92.30;;;;;;5042069;28;20214;-71
2023/09/01 09:25:33;;;;;;;6.18;1.63;;;21.30;92.20;;;;;;5045450;28;20224;-69
2023/09/01 09:28:01;;;;;;;4.22;1.45;;;21.30;92.40;;;;;;5044148;28;20224;-68
2023/09/01 09:30:27;;;;;;;3.85;1.30;;;21.20;92.80;;;;;;5052421;28;20270;-69
2023/09/01 09:33:07;;;;;;;2.35;1.40;;;21.20;92.60;;;;;;5045157;28;20194;-69
2023/09/01 09:35:34;;;;;;;4.68;1.35;;;21.20;92.70;;;;;;5047365;28;20179;-70
2023/09/01 09:38:01;;;;;;;4.50;1.10;;;21.20;93.20;;;;;;5032803;28;20198;-68
2023/09/01 09:40:27;;;;;;;2.53;1.23;;;21.20;92.90;;;;;;5040846;28;20198;-69
2023/09/01 09:42:59;;;;;;;5.32;1.40;;;21.20;92.90;;;;;;5042484;28;20215;-72
2023/09/01 09:45:32;;;;;;;3.63;1.17;;;21.20;93.20;;;;;;5045899;28;20182;-69
2023/09/01 09:48:04;;;;;;;1.67;1.00;;;21.20;92.90;;;;;;5044005;28;20199;-69
2023/09/01 09:50:32;;;;;;;5.05;1.52;;;21.20;92.90;;;;;;5008420;28;20184;-70
2023/09/01 09:53:04;;;;;;;1.35;0.98;;;21.20;93.20;;;;;;5016330;28;20179;-70
2023/09/01 09:55:44;;;;;;;3.22;1.52;;;21.20;93.20;;;;;;5016585;28;20214;-69
2023/09/01 09:58:12;;;;;;;2.28;1.20;;;21.20;92.80;;;;;;5048276;28;20171;-69
2023/09/01 10:00:53;;;;;;;2.42;1.10;;;21.30;92.70;;;;;;5042217;28;20209;-69
2023/09/01 10:03:23;;;;;;;3.22;1.20;;;21.20;93.20;;;;;;5043262;28;20178;-69
2023/09/01 10:05:51;;;;;;;3.25;1.50;;;21.20;93.50;;;;;;5052721;28;20186;-69
2023/09/01 10:08:20;;;;;;;1.33;1.08;;;21.20;93.40;;;;;;5038880;28;20282;-69
2023/09/01 10:10:46;;;;;;;2.50;1.17;;;21.20;93.20;;;;;;5046950;28;20203;-69
2023/09/01 10:13:12;;;;;;;1.67;1.20;;;21.20;93.20;;;;;;5026723;28;20179;-67
2023/09/01 10:15:39;;;;;;;3.78;1.08;;;21.30;93.20;;;;;;5037844;28;20218;-66
2023/09/01 10:18:10;;;;;;;4.20;1.20;;;21.20;93.20;;;;;;5052550;28;20194;-69
2023/09/01 10:20:45;;;;;;;2.08;1.02;;;21.20;93.10;;;;;;5052297;28;20190;-69
2023/09/01 10:23:13;;;;;;;1.67;1.05;;;21.20;93.10;;;;;;5043670;28;20193;-69
2023/09/01 10:25:39;;;;;;;2.88;1.08;;;21.20;93.00;;;;;;5034798;28;20213;-69
2023/09/01 10:28:11;;;;;;;3.13;1.02;;;21.30;93.10;;;;;;5052830;28;20229;-69
2023/09/01 10:30:39;;;;;;;1.10;1.00;;;21.30;93.20;;;;;;5051949;28;20183;-69
2023/09/01 10:33:22;;;;;;;3.13;1.08;;;21.20;93.20;;;;;;5043852;28;20170;-70
2023/09/01 10:35:57;;;;;;;3.30;1.20;;;21.30;93.10;;;;;;5051595;28;20668;-69
2023/09/01 10:38:37;;;;;;;3.70;1.00;;;21.30;93.10;;;;;;5040317;28;20189;-68
2023/09/01 10:41:03;;;;;;;3.15;1.52;;;21.30;93.20;;;;;;5038029;28;20187;-69
2023/09/01 10:43:38;;;;;;;2.15;1.13;;;21.30;93.20;;;;;;5035268;28;20182;-69
2023/09/01 10:46:14;;;;;;;1.48;1.10;;;21.30;93.20;;;;;;5034985;28;20707;-69
2023/09/01 10:49:00;;;;;;;1.65;1.10;;;21.30;93.20;;;;;;5032847;28;20194;-69
2023/09/01 10:51:33;;;;;;;1.95;0.93;;;21.30;93.20;;;;;;5043709;28;20226;-69
2023/09/01 10:54:20;;;;;;;1.92;1.00;;;21.30;93.10;;;;;;5052587;28;20210;-71
2023/09/01 10:56:59;;;;;;;3.38;1.10;;;21.30;93.10;;;;;;5041945;28;20226;-68
2023/09/01 10:59:37;;;;;;;2.67;1.10;;;21.30;93.20;;;;;;5043504;28;20205;-68
2023/09/01 11:02:22;;;;;;;2.70;1.10;;;21.30;93.20;;;;;;5042953;28;20262;-69
2023/09/01 11:04:49;;;;;;;2.05;0.90;;;21.30;93.20;;;;;;5051429;28;20182;-70
2023/09/01 11:07:15;;;;;;;2.58;1.10;;;21.30;93.20;;;;;;5051555;28;20271;-69
2023/09/01 11:09:44;;;;;;;1.90;1.30;;;21.30;93.20;;;;;;5043512;28;20194;-69
2023/09/01 11:12:12;;;;;;;1.27;0.98;;;21.30;93.30;;;;;;5050091;28;20256;-69
2023/09/01 11:15:00;;;;;;;1.77;1.02;;;21.30;93.20;;;;;;5039251;28;20658;-71
2023/09/01 11:17:39;;;;;;;1.83;1.00;;;21.30;93.20;;;;;;5044227;28;20205;-69
2023/09/01 11:20:10;;;;;;;1.30;0.73;;;21.30;93.20;;;;;;5052568;28;20209;-69
2023/09/01 11:22:41;;;;;;;1.20;0.90;;;21.30;93.20;;;;;;5053146;28;20269;-69
2023/09/01 11:25:11;;;;;;;1.25;1.00;;;21.30;93.20;;;;;;5052424;28;20178;-69
2023/09/01 11:27:41;;;;;;;1.17;1.00;;;21.30;93.20;;;;;;5050609;28;20209;-69
2023/09/01 11:30:09;;;;;;;2.17;1.10;;;21.30;93.20;;;;;;5051500;28;20241;-69
2023/09/01 11:32:34;;;;;;;3.97;1.00;;;21.30;93.20;;;;;;5034295;28;20203;-69
2023/09/01 11:35:02;;;;;;;1.48;1.00;;;21.30;93.30;;;;;;5025941;28;20185;-69
2023/09/01 11:37:40;;;;;;;1.10;1.00;;;21.30;93.20;;;;;;5052441;28;20209;-69
2023/09/01 11:40:12;;;;;;;2.33;1.00;;;21.30;93.20;;;;;;5042826;28;20194;-70
2023/09/01 11:42:42;;;;;;;1.23;0.88;;;21.30;93.20;;;;;;5052079;28;20190;-69
2023/09/01 11:45:10;;;;;;;1.35;1.05;;;21.30;93.20;;;;;;5050535;28;20194;-69
2023/09/01 11:47:37;;;;;;;1.70;1.05;;;21.30;93.20;;;;;;5034213;28;20689;-69
2023/09/01 11:50:04;;;;;;;1.35;1.08;;;21.40;93.20;;;;;;5023988;28;20180;-70
2023/09/01 11:52:30;;;;;;;0.90;0.90;;;21.30;93.20;;;;;;5050622;28;20229;-69
2023/09/01 11:54:57;;;;;;;1.75;0.98;;;21.30;94.10;;;;;;5033943;28;20210;-69
2023/09/01 11:57:23;;;;;;;1.65;1.10;;;21.30;96.80;;;;;;5041286;28;20625;-69
2023/09/01 11:59:50;;;;;;;1.17;0.90;;;21.30;93.10;;;;;;5046648;28;20182;-69
2023/09/01 12:02:20;;;;;;;1.60;1.08;;;21.40;93.10;;;;;;5032491;28;20178;-68
2023/09/01 12:04:48;;;;;;;1.83;0.88;;;21.30;93.10;;;;;;5038992;28;20659;-69
2023/09/01 12:07:29;;;;;;;1.15;0.85;;;21.40;93.30;;;;;;5048463;28;20214;-69
2023/09/01 12:09:55;;;;;;;1.15;0.90;;;21.40;93.30;;;;;;5050690;28;20183;-69
2023/09/01 12:12:22;;;;;;;1.48;1.00;;;21.40;93.30;;;;;;5050766;28;20260;-69
2023/09/01 12:14:49;;;;;;;1.40;1.00;;;21.40;93.30;;;;;;5045573;28;20243;-69
2023/09/01 12:17:24;;;;;;;1.17;0.77;;;21.40;93.30;;;;;;5046905;28;20271;-69
2023/09/01 12:19:52;;;;;;;0.98;0.88;;;21.40;93.30;;;;;;5045351;28;20193;-69
2023/09/01 12:22:18;;;;;;;1.58;0.80;;;21.40;93.30;;;;;;5052062;28;20178;-69
2023/09/01 12:24:55;;;;;;;1.10;1.00;;;21.40;93.20;;;;;;5050352;28;20657;-69
2023/09/01 12:27:22;;;;;;;1.13;0.82;;;21.40;93.20;;;;;;5051883;28;20210;-69
2023/09/01 12:29:48;;;;;;;1.75;0.82;;;21.40;93.20;;;;;;5048453;28;20186;-69
2023/09/01 12:32:14;;;;;;;0.90;0.80;;;21.40;93.30;;;;;;5045797;28;20215;-69
2023/09/01 12:34:45;;;;;;;1.83;0.90;;;21.40;93.20;;;;;;5049586;28;20202;-69
2023/09/01 12:37:11;;;;;;;1.15;1.05;;;21.40;93.20;;;;;;5043606;28;20203;-69
2023/09/01 12:39:38;;;;;;;1.20;0.80;;;21.40;93.20;;;;;;5048595;28;20187;-70
2023/09/01 12:42:04;;;;;;;0.80;0.68;;;21.40;93.20;;;;;;5014475;28;20184;-70
2023/09/01 12:44:30;;;;;;;1.98;1.30;;;21.40;93.20;;;;;;5021129;28;20186;-69
2023/09/01 12:46:56;;;;;;;0.85;0.70;;;21.40;93.20;;;;;;5037398;28;20214;-69
2023/09/01 12:49:22;;;;;;;1.27;0.90;;;21.30;93.20;;;;;;5053917;28;20195;-69
2023/09/01 12:51:48;;;;;;;0.77;0.77;;;21.40;93.30;;;;;;5055085;28;20248;-69
2023/09/01 12:54:14;;;;;;;0.80;0.73;;;21.30;93.20;;;;;;5053750;28;20183;-69